sensor_id;sensor_type;location;lat;lon;timestamp;temperature;humidity
75786;DHT22;64402;44.708;37.644;2023-09-30T00:01:10;20.10;48.33
75786;DHT22;64402;44.708;37.644;2023-09-30T00:03:40;20.05;48.35
75786;DHT22;64402;44.708;37.644;2023-09-30T00:06:06;20.02;48.42
75786;DHT22;64402;44.708;37.644;2023-09-30T00:08:32;19.99;48.44
75786;DHT22;64402;44.708;37.644;2023-09-30T00:10:59;19.98;48.56
75786;DHT22;64402;44.708;37.644;2023-09-30T00:13:25;19.95;48.54
75786;DHT22;64402;44.708;37.644;2023-09-30T00:15:51;19.92;48.62
75786;DHT22;64402;44.708;37.644;2023-09-30T00:18:17;19.91;48.72
75786;DHT22;64402;44.708;37.644;2023-09-30T00:20:43;19.89;48.47
75786;DHT22;64402;44.708;37.644;2023-09-30T00:23:10;19.88;48.50
75786;DHT22;64402;44.708;37.644;2023-09-30T00:25:36;19.86;48.66
75786;DHT22;64402;44.708;37.644;2023-09-30T00:28:02;19.84;48.75
75786;DHT22;64402;44.708;37.644;2023-09-30T00:30:28;19.81;48.46
75786;DHT22;64402;44.708;37.644;2023-09-30T00:32:54;19.79;48.65
75786;DHT22;64402;44.708;37.644;2023-09-30T00:35:20;19.75;49.01
75786;DHT22;64402;44.708;37.644;2023-09-30T00:37:46;19.74;48.94
75786;DHT22;64402;44.708;37.644;2023-09-30T00:40:12;19.69;48.89
75786;DHT22;64402;44.708;37.644;2023-09-30T00:42:39;19.63;49.18
75786;DHT22;64402;44.708;37.644;2023-09-30T00:45:07;19.61;49.31
75786;DHT22;64402;44.708;37.644;2023-09-30T00:47:36;19.56;49.40
75786;DHT22;64402;44.708;37.644;2023-09-30T00:50:03;19.54;49.46
75786;DHT22;64402;44.708;37.644;2023-09-30T00:52:35;19.50;49.65
75786;DHT22;64402;44.708;37.644;2023-09-30T00:55:01;19.45;49.73
75786;DHT22;64402;44.708;37.644;2023-09-30T00:57:29;19.41;49.60
75786;DHT22;64402;44.708;37.644;2023-09-30T00:59:57;19.38;49.76
75786;DHT22;64402;44.708;37.644;2023-09-30T01:02:23;19.35;49.74
75786;DHT22;64402;44.708;37.644;2023-09-30T01:04:50;19.31;49.95
75786;DHT22;64402;44.708;37.644;2023-09-30T01:07:16;19.28;49.63
75786;DHT22;64402;44.708;37.644;2023-09-30T01:09:43;19.27;49.68
75786;DHT22;64402;44.708;37.644;2023-09-30T01:12:09;19.24;49.92
75786;DHT22;64402;44.708;37.644;2023-09-30T01:14:35;19.21;50.01
75786;DHT22;64402;44.708;37.644;2023-09-30T01:17:04;19.18;49.59
75786;DHT22;64402;44.708;37.644;2023-09-30T01:19:34;19.16;49.91
75786;DHT22;64402;44.708;37.644;2023-09-30T01:22:01;19.14;49.81
75786;DHT22;64402;44.708;37.644;2023-09-30T01:24:38;19.12;49.80
75786;DHT22;64402;44.708;37.644;2023-09-30T01:27:05;19.10;49.89
75786;DHT22;64402;44.708;37.644;2023-09-30T01:29:31;19.07;49.98
75786;DHT22;64402;44.708;37.644;2023-09-30T01:31:58;19.02;50.37
75786;DHT22;64402;44.708;37.644;2023-09-30T01:34:24;19.00;50.51
75786;DHT22;64402;44.708;37.644;2023-09-30T01:36:53;18.97;50.45
75786;DHT22;64402;44.708;37.644;2023-09-30T01:39:19;18.94;50.88
75786;DHT22;64402;44.708;37.644;2023-09-30T01:41:45;18.92;50.68
75786;DHT22;64402;44.708;37.644;2023-09-30T01:44:11;18.88;51.01
75786;DHT22;64402;44.708;37.644;2023-09-30T01:46:37;18.87;50.50
75786;DHT22;64402;44.708;37.644;2023-09-30T01:49:04;18.86;50.22
75786;DHT22;64402;44.708;37.644;2023-09-30T01:51:30;18.84;50.64
75786;DHT22;64402;44.708;37.644;2023-09-30T01:53:56;18.82;51.14
75786;DHT22;64402;44.708;37.644;2023-09-30T01:56:22;18.76;51.21
75786;DHT22;64402;44.708;37.644;2023-09-30T01:58:48;18.74;51.21
75786;DHT22;64402;44.708;37.644;2023-09-30T02:01:15;18.74;51.15
75786;DHT22;64402;44.708;37.644;2023-09-30T02:03:41;18.72;51.30
75786;DHT22;64402;44.708;37.644;2023-09-30T02:06:08;18.73;51.17
75786;DHT22;64402;44.708;37.644;2023-09-30T02:08:34;18.72;50.88
75786;DHT22;64402;44.708;37.644;2023-09-30T02:11:02;18.71;51.05
75786;DHT22;64402;44.708;37.644;2023-09-30T02:13:34;18.70;51.32
75786;DHT22;64402;44.708;37.644;2023-09-30T02:16:02;18.67;51.38
75786;DHT22;64402;44.708;37.644;2023-09-30T02:18:29;18.65;51.41
75786;DHT22;64402;44.708;37.644;2023-09-30T02:20:58;18.65;51.30
75786;DHT22;64402;44.708;37.644;2023-09-30T02:23:25;18.64;51.56
75786;DHT22;64402;44.708;37.644;2023-09-30T02:25:51;18.64;51.17
75786;DHT22;64402;44.708;37.644;2023-09-30T02:28:17;18.63;51.12
75786;DHT22;64402;44.708;37.644;2023-09-30T02:30:44;18.64;51.33
75786;DHT22;64402;44.708;37.644;2023-09-30T02:33:10;18.65;51.11
75786;DHT22;64402;44.708;37.644;2023-09-30T02:35:36;18.64;51.29
75786;DHT22;64402;44.708;37.644;2023-09-30T02:38:05;18.62;51.74
75786;DHT22;64402;44.708;37.644;2023-09-30T02:40:32;18.58;51.65
75786;DHT22;64402;44.708;37.644;2023-09-30T02:42:58;18.55;51.71
75786;DHT22;64402;44.708;37.644;2023-09-30T02:45:25;18.52;52.11
75786;DHT22;64402;44.708;37.644;2023-09-30T02:47:51;18.49;52.04
75786;DHT22;64402;44.708;37.644;2023-09-30T02:50:17;18.47;52.21
75786;DHT22;64402;44.708;37.644;2023-09-30T02:52:43;18.43;52.14
75786;DHT22;64402;44.708;37.644;2023-09-30T02:55:10;18.41;52.30
75786;DHT22;64402;44.708;37.644;2023-09-30T02:57:36;18.39;52.28
75786;DHT22;64402;44.708;37.644;2023-09-30T03:00:08;18.36;52.33
75786;DHT22;64402;44.708;37.644;2023-09-30T03:02:51;18.33;52.48
75786;DHT22;64402;44.708;37.644;2023-09-30T03:05:18;18.32;52.36
75786;DHT22;64402;44.708;37.644;2023-09-30T03:07:44;18.28;52.60
75786;DHT22;64402;44.708;37.644;2023-09-30T03:10:11;18.26;52.71
75786;DHT22;64402;44.708;37.644;2023-09-30T03:12:39;18.26;52.71
75786;DHT22;64402;44.708;37.644;2023-09-30T03:15:06;18.25;52.82
75786;DHT22;64402;44.708;37.644;2023-09-30T03:17:32;18.25;52.85
75786;DHT22;64402;44.708;37.644;2023-09-30T03:19:58;18.25;52.99
75786;DHT22;64402;44.708;37.644;2023-09-30T03:22:26;18.26;52.99
75786;DHT22;64402;44.708;37.644;2023-09-30T03:24:55;18.24;53.24
75786;DHT22;64402;44.708;37.644;2023-09-30T03:27:23;18.25;53.07
75786;DHT22;64402;44.708;37.644;2023-09-30T03:29:49;18.26;53.24
75786;DHT22;64402;44.708;37.644;2023-09-30T03:32:15;18.23;53.49
75786;DHT22;64402;44.708;37.644;2023-09-30T03:34:41;18.22;53.72
75786;DHT22;64402;44.708;37.644;2023-09-30T03:37:10;18.20;53.66
75786;DHT22;64402;44.708;37.644;2023-09-30T03:39:37;18.21;53.61
75786;DHT22;64402;44.708;37.644;2023-09-30T03:42:03;18.22;53.68
75786;DHT22;64402;44.708;37.644;2023-09-30T03:44:29;18.22;53.80
75786;DHT22;64402;44.708;37.644;2023-09-30T03:46:55;18.23;53.68
75786;DHT22;64402;44.708;37.644;2023-09-30T03:49:22;18.24;53.73
75786;DHT22;64402;44.708;37.644;2023-09-30T03:51:52;18.26;53.72
75786;DHT22;64402;44.708;37.644;2023-09-30T03:54:19;18.29;53.54
75786;DHT22;64402;44.708;37.644;2023-09-30T03:56:45;18.34;53.17
75786;DHT22;64402;44.708;37.644;2023-09-30T03:59:14;18.36;53.40
75786;DHT22;64402;44.708;37.644;2023-09-30T04:01:41;18.41;53.10
75786;DHT22;64402;44.708;37.644;2023-09-30T04:04:08;18.42;52.83
75786;DHT22;64402;44.708;37.644;2023-09-30T04:06:37;18.46;52.98
75786;DHT22;64402;44.708;37.644;2023-09-30T04:09:05;18.52;52.88
75786;DHT22;64402;44.708;37.644;2023-09-30T04:11:42;18.55;52.82
75786;DHT22;64402;44.708;37.644;2023-09-30T04:14:08;18.58;52.84
75786;DHT22;64402;44.708;37.644;2023-09-30T04:16:35;18.64;52.63
75786;DHT22;64402;44.708;37.644;2023-09-30T04:19:03;18.68;52.53
75786;DHT22;64402;44.708;37.644;2023-09-30T04:21:30;18.69;52.74
75786;DHT22;64402;44.708;37.644;2023-09-30T04:24:00;18.74;52.41
75786;DHT22;64402;44.708;37.644;2023-09-30T04:26:27;18.78;52.35
75786;DHT22;64402;44.708;37.644;2023-09-30T04:28:53;18.82;52.26
75786;DHT22;64402;44.708;37.644;2023-09-30T04:31:20;18.89;51.91
75786;DHT22;64402;44.708;37.644;2023-09-30T04:33:48;18.96;51.68
75786;DHT22;64402;44.708;37.644;2023-09-30T04:36:14;19.01;51.64
75786;DHT22;64402;44.708;37.644;2023-09-30T04:38:41;19.08;51.34
75786;DHT22;64402;44.708;37.644;2023-09-30T04:41:07;19.11;51.53
75786;DHT22;64402;44.708;37.644;2023-09-30T04:43:34;19.17;51.23
75786;DHT22;64402;44.708;37.644;2023-09-30T04:46:00;19.25;51.14
75786;DHT22;64402;44.708;37.644;2023-09-30T04:48:28;19.32;51.05
75786;DHT22;64402;44.708;37.644;2023-09-30T04:50:54;19.40;51.14
75786;DHT22;64402;44.708;37.644;2023-09-30T04:53:20;19.45;50.70
75786;DHT22;64402;44.708;37.644;2023-09-30T04:55:49;19.52;50.69
75786;DHT22;64402;44.708;37.644;2023-09-30T04:58:16;19.57;50.46
75786;DHT22;64402;44.708;37.644;2023-09-30T05:00:43;19.65;50.63
75786;DHT22;64402;44.708;37.644;2023-09-30T05:03:09;19.72;50.27
75786;DHT22;64402;44.708;37.644;2023-09-30T05:05:35;19.80;50.25
75786;DHT22;64402;44.708;37.644;2023-09-30T05:08:01;19.90;50.36
75786;DHT22;64402;44.708;37.644;2023-09-30T05:10:28;19.98;50.14
75786;DHT22;64402;44.708;37.644;2023-09-30T05:12:55;20.05;50.02
75786;DHT22;64402;44.708;37.644;2023-09-30T05:15:21;20.11;49.92
75786;DHT22;64402;44.708;37.644;2023-09-30T05:17:48;20.20;49.93
75786;DHT22;64402;44.708;37.644;2023-09-30T05:20:15;20.30;49.59
75786;DHT22;64402;44.708;37.644;2023-09-30T05:22:45;20.40;49.44
75786;DHT22;64402;44.708;37.644;2023-09-30T05:25:13;20.49;49.40
75786;DHT22;64402;44.708;37.644;2023-09-30T05:27:42;20.59;49.23
75786;DHT22;64402;44.708;37.644;2023-09-30T05:30:09;20.69;49.02
75786;DHT22;64402;44.708;37.644;2023-09-30T05:32:37;20.80;48.76
75786;DHT22;64402;44.708;37.644;2023-09-30T05:35:06;20.87;48.75
75786;DHT22;64402;44.708;37.644;2023-09-30T05:37:42;20.99;48.62
75786;DHT22;64402;44.708;37.644;2023-09-30T05:40:09;21.10;48.40
75786;DHT22;64402;44.708;37.644;2023-09-30T05:42:57;21.22;47.92
75786;DHT22;64402;44.708;37.644;2023-09-30T05:45:27;21.34;47.66
75786;DHT22;64402;44.708;37.644;2023-09-30T05:47:54;21.47;47.78
75786;DHT22;64402;44.708;37.644;2023-09-30T05:50:21;21.59;47.37
75786;DHT22;64402;44.708;37.644;2023-09-30T05:52:51;21.73;47.06
75786;DHT22;64402;44.708;37.644;2023-09-30T05:55:17;21.90;46.76
75786;DHT22;64402;44.708;37.644;2023-09-30T05:57:50;22.03;46.43
75786;DHT22;64402;44.708;37.644;2023-09-30T06:00:16;22.21;46.19
75786;DHT22;64402;44.708;37.644;2023-09-30T06:03:03;22.38;45.77
75786;DHT22;64402;44.708;37.644;2023-09-30T06:05:33;22.56;45.62
75786;DHT22;64402;44.708;37.644;2023-09-30T06:08:03;22.66;45.49
75786;DHT22;64402;44.708;37.644;2023-09-30T06:10:30;22.75;45.10
75786;DHT22;64402;44.708;37.644;2023-09-30T06:12:57;22.88;44.88
75786;DHT22;64402;44.708;37.644;2023-09-30T06:15:24;23.06;44.53
75786;DHT22;64402;44.708;37.644;2023-09-30T06:17:55;23.26;44.12
75786;DHT22;64402;44.708;37.644;2023-09-30T06:20:22;23.46;43.68
75786;DHT22;64402;44.708;37.644;2023-09-30T06:22:48;23.73;43.15
75786;DHT22;64402;44.708;37.644;2023-09-30T06:25:16;23.96;42.81
75786;DHT22;64402;44.708;37.644;2023-09-30T06:27:43;24.09;42.31
75786;DHT22;64402;44.708;37.644;2023-09-30T06:30:10;24.19;42.22
75786;DHT22;64402;44.708;37.644;2023-09-30T06:32:36;24.30;42.22
75786;DHT22;64402;44.708;37.644;2023-09-30T06:35:03;24.47;41.54
75786;DHT22;64402;44.708;37.644;2023-09-30T06:37:30;24.58;41.23
75786;DHT22;64402;44.708;37.644;2023-09-30T06:39:59;24.76;41.13
75786;DHT22;64402;44.708;37.644;2023-09-30T06:42:29;24.91;40.86
75786;DHT22;64402;44.708;37.644;2023-09-30T06:44:55;25.67;39.60
75786;DHT22;64402;44.708;37.644;2023-09-30T06:47:21;27.39;35.83
75786;DHT22;64402;44.708;37.644;2023-09-30T06:49:47;28.78;32.71
75786;DHT22;64402;44.708;37.644;2023-09-30T06:52:14;29.68;30.69
75786;DHT22;64402;44.708;37.644;2023-09-30T06:54:40;30.28;29.72
75786;DHT22;64402;44.708;37.644;2023-09-30T06:57:06;30.71;28.70
75786;DHT22;64402;44.708;37.644;2023-09-30T06:59:33;31.22;28.17
75786;DHT22;64402;44.708;37.644;2023-09-30T07:01:59;31.56;27.39
75786;DHT22;64402;44.708;37.644;2023-09-30T07:04:26;32.04;27.00
75786;DHT22;64402;44.708;37.644;2023-09-30T07:06:55;32.13;26.64
75786;DHT22;64402;44.708;37.644;2023-09-30T07:09:21;32.55;26.20
75786;DHT22;64402;44.708;37.644;2023-09-30T07:11:47;33.30;25.04
75786;DHT22;64402;44.708;37.644;2023-09-30T07:14:15;33.99;23.93
75786;DHT22;64402;44.708;37.644;2023-09-30T07:16:41;34.22;24.10
75786;DHT22;64402;44.708;37.644;2023-09-30T07:19:07;34.73;23.37
75786;DHT22;64402;44.708;37.644;2023-09-30T07:21:33;35.38;22.72
75786;DHT22;64402;44.708;37.644;2023-09-30T07:23:59;35.68;22.46
75786;DHT22;64402;44.708;37.644;2023-09-30T07:26:25;36.31;21.60
75786;DHT22;64402;44.708;37.644;2023-09-30T07:28:55;36.66;21.31
75786;DHT22;64402;44.708;37.644;2023-09-30T07:31:22;37.04;21.02
75786;DHT22;64402;44.708;37.644;2023-09-30T07:33:49;37.57;20.31
75786;DHT22;64402;44.708;37.644;2023-09-30T07:36:15;38.06;20.02
75786;DHT22;64402;44.708;37.644;2023-09-30T07:38:43;38.43;19.86
75786;DHT22;64402;44.708;37.644;2023-09-30T07:41:10;38.85;19.25
75786;DHT22;64402;44.708;37.644;2023-09-30T07:43:36;39.32;18.77
75786;DHT22;64402;44.708;37.644;2023-09-30T07:46:06;39.61;17.89
75786;DHT22;64402;44.708;37.644;2023-09-30T07:48:33;39.74;18.04
75786;DHT22;64402;44.708;37.644;2023-09-30T07:50:59;40.33;17.40
75786;DHT22;64402;44.708;37.644;2023-09-30T07:53:26;40.65;16.80
75786;DHT22;64402;44.708;37.644;2023-09-30T07:55:52;40.68;16.36
75786;DHT22;64402;44.708;37.644;2023-09-30T07:58:20;41.02;17.13
75786;DHT22;64402;44.708;37.644;2023-09-30T08:00:46;41.13;16.58
75786;DHT22;64402;44.708;37.644;2023-09-30T08:03:13;41.21;16.64
75786;DHT22;64402;44.708;37.644;2023-09-30T08:05:40;41.50;16.54
75786;DHT22;64402;44.708;37.644;2023-09-30T08:08:06;41.84;15.94
75786;DHT22;64402;44.708;37.644;2023-09-30T08:10:32;41.85;15.92
75786;DHT22;64402;44.708;37.644;2023-09-30T08:12:58;42.26;15.44
75786;DHT22;64402;44.708;37.644;2023-09-30T08:15:28;42.73;15.19
75786;DHT22;64402;44.708;37.644;2023-09-30T08:17:54;42.96;14.98
75786;DHT22;64402;44.708;37.644;2023-09-30T08:20:20;42.93;15.08
75786;DHT22;64402;44.708;37.644;2023-09-30T08:22:46;42.94;15.10
75786;DHT22;64402;44.708;37.644;2023-09-30T08:25:13;42.18;19.61
75786;DHT22;64402;44.708;37.644;2023-09-30T08:27:39;41.24;21.84
75786;DHT22;64402;44.708;37.644;2023-09-30T08:30:05;40.89;23.30
75786;DHT22;64402;44.708;37.644;2023-09-30T08:32:35;39.79;24.62
75786;DHT22;64402;44.708;37.644;2023-09-30T08:35:05;39.61;25.01
75786;DHT22;64402;44.708;37.644;2023-09-30T08:37:31;39.51;25.21
75786;DHT22;64402;44.708;37.644;2023-09-30T08:39:57;39.38;25.40
75786;DHT22;64402;44.708;37.644;2023-09-30T08:42:26;39.39;25.46
75786;DHT22;64402;44.708;37.644;2023-09-30T08:44:55;39.11;26.08
75786;DHT22;64402;44.708;37.644;2023-09-30T08:47:21;39.05;26.00
75786;DHT22;64402;44.708;37.644;2023-09-30T08:49:50;38.93;26.36
75786;DHT22;64402;44.708;37.644;2023-09-30T08:52:22;39.93;24.72
75786;DHT22;64402;44.708;37.644;2023-09-30T08:54:49;40.71;21.81
75786;DHT22;64402;44.708;37.644;2023-09-30T08:57:18;41.15;21.11
75786;DHT22;64402;44.708;37.644;2023-09-30T08:59:46;42.17;18.79
75786;DHT22;64402;44.708;37.644;2023-09-30T09:02:15;43.73;17.90
75786;DHT22;64402;44.708;37.644;2023-09-30T09:04:42;44.51;15.18
75786;DHT22;64402;44.708;37.644;2023-09-30T09:07:09;44.67;14.77
75786;DHT22;64402;44.708;37.644;2023-09-30T09:09:35;45.36;14.42
75786;DHT22;64402;44.708;37.644;2023-09-30T09:12:01;45.03;14.75
75786;DHT22;64402;44.708;37.644;2023-09-30T09:14:41;45.57;13.29
75786;DHT22;64402;44.708;37.644;2023-09-30T09:17:12;45.98;12.51
75786;DHT22;64402;44.708;37.644;2023-09-30T09:19:38;46.43;11.91
75786;DHT22;64402;44.708;37.644;2023-09-30T09:22:04;46.29;11.85
75786;DHT22;64402;44.708;37.644;2023-09-30T09:24:37;46.23;11.68
75786;DHT22;64402;44.708;37.644;2023-09-30T09:27:12;47.24;10.91
75786;DHT22;64402;44.708;37.644;2023-09-30T09:29:42;47.63;10.32
75786;DHT22;64402;44.708;37.644;2023-09-30T09:32:15;48.39;9.01
75786;DHT22;64402;44.708;37.644;2023-09-30T09:34:44;48.86;8.68
75786;DHT22;64402;44.708;37.644;2023-09-30T09:37:14;48.97;8.37
75786;DHT22;64402;44.708;37.644;2023-09-30T09:42:30;49.45;7.67
75786;DHT22;64402;44.708;37.644;2023-09-30T09:44:59;49.33;7.95
75786;DHT22;64402;44.708;37.644;2023-09-30T09:47:25;49.49;7.96
75786;DHT22;64402;44.708;37.644;2023-09-30T09:49:53;49.11;9.50
75786;DHT22;64402;44.708;37.644;2023-09-30T09:52:20;47.49;11.72
75786;DHT22;64402;44.708;37.644;2023-09-30T09:54:46;47.33;11.78
75786;DHT22;64402;44.708;37.644;2023-09-30T09:57:14;48.01;10.31
75786;DHT22;64402;44.708;37.644;2023-09-30T09:59:43;48.60;8.72
75786;DHT22;64402;44.708;37.644;2023-09-30T10:02:14;48.68;8.37
75786;DHT22;64402;44.708;37.644;2023-09-30T10:04:45;48.52;8.43
75786;DHT22;64402;44.708;37.644;2023-09-30T10:07:20;48.76;8.26
75786;DHT22;64402;44.708;37.644;2023-09-30T10:09:50;48.74;8.43
75786;DHT22;64402;44.708;37.644;2023-09-30T10:12:19;48.50;9.11
75786;DHT22;64402;44.708;37.644;2023-09-30T10:14:47;49.42;7.80
75786;DHT22;64402;44.708;37.644;2023-09-30T10:17:13;50.04;7.16
75786;DHT22;64402;44.708;37.644;2023-09-30T10:20:11;49.49;7.65
75786;DHT22;64402;44.708;37.644;2023-09-30T10:22:38;50.34;7.08
75786;DHT22;64402;44.708;37.644;2023-09-30T10:25:33;49.53;7.30
75786;DHT22;64402;44.708;37.644;2023-09-30T10:27:59;49.00;7.18
75786;DHT22;64402;44.708;37.644;2023-09-30T10:30:26;49.53;7.10
75786;DHT22;64402;44.708;37.644;2023-09-30T10:40:51;49.54;6.60
75786;DHT22;64402;44.708;37.644;2023-09-30T10:43:37;47.68;11.01
75786;DHT22;64402;44.708;37.644;2023-09-30T10:49:15;45.21;10.85
75786;DHT22;64402;44.708;37.644;2023-09-30T10:51:43;45.31;11.40
75786;DHT22;64402;44.708;37.644;2023-09-30T10:54:12;46.15;10.51
75786;DHT22;64402;44.708;37.644;2023-09-30T10:56:38;47.21;9.84
75786;DHT22;64402;44.708;37.644;2023-09-30T10:59:05;47.76;9.19
75786;DHT22;64402;44.708;37.644;2023-09-30T11:01:34;47.43;9.59
75786;DHT22;64402;44.708;37.644;2023-09-30T11:04:02;46.88;10.74
75786;DHT22;64402;44.708;37.644;2023-09-30T11:06:34;44.23;13.42
75786;DHT22;64402;44.708;37.644;2023-09-30T11:09:01;42.97;15.05
75786;DHT22;64402;44.708;37.644;2023-09-30T11:11:33;41.94;15.70
75786;DHT22;64402;44.708;37.644;2023-09-30T11:14:00;42.49;15.46
75786;DHT22;64402;44.708;37.644;2023-09-30T11:16:26;43.12;15.50
75786;DHT22;64402;44.708;37.644;2023-09-30T11:18:55;42.50;16.68
75786;DHT22;64402;44.708;37.644;2023-09-30T11:21:22;42.77;16.22
75786;DHT22;64402;44.708;37.644;2023-09-30T11:23:48;41.84;17.25
75786;DHT22;64402;44.708;37.644;2023-09-30T11:26:14;41.42;18.00
75786;DHT22;64402;44.708;37.644;2023-09-30T11:28:42;42.10;17.54
75786;DHT22;64402;44.708;37.644;2023-09-30T11:31:11;41.45;18.99
75786;DHT22;64402;44.708;37.644;2023-09-30T11:33:50;41.29;19.68
75786;DHT22;64402;44.708;37.644;2023-09-30T11:36:21;41.65;19.05
75786;DHT22;64402;44.708;37.644;2023-09-30T11:38:49;41.52;19.28
75786;DHT22;64402;44.708;37.644;2023-09-30T11:41:16;42.10;18.67
75786;DHT22;64402;44.708;37.644;2023-09-30T11:44:10;41.79;19.13
75786;DHT22;64402;44.708;37.644;2023-09-30T11:47:07;41.67;20.18
75786;DHT22;64402;44.708;37.644;2023-09-30T11:49:36;41.31;20.24
75786;DHT22;64402;44.708;37.644;2023-09-30T11:52:07;41.59;20.29
75786;DHT22;64402;44.708;37.644;2023-09-30T11:54:35;41.41;21.08
75786;DHT22;64402;44.708;37.644;2023-09-30T11:57:03;40.98;21.31
75786;DHT22;64402;44.708;37.644;2023-09-30T11:59:29;40.09;22.90
75786;DHT22;64402;44.708;37.644;2023-09-30T12:01:56;40.16;23.38
75786;DHT22;64402;44.708;37.644;2023-09-30T12:04:22;39.89;23.56
75786;DHT22;64402;44.708;37.644;2023-09-30T12:06:49;40.24;23.15
75786;DHT22;64402;44.708;37.644;2023-09-30T12:09:15;40.97;22.50
75786;DHT22;64402;44.708;37.644;2023-09-30T12:11:51;40.84;22.74
75786;DHT22;64402;44.708;37.644;2023-09-30T12:14:17;40.15;23.70
75786;DHT22;64402;44.708;37.644;2023-09-30T12:16:43;39.76;24.62
75786;DHT22;64402;44.708;37.644;2023-09-30T12:19:19;40.60;23.61
75786;DHT22;64402;44.708;37.644;2023-09-30T12:21:46;40.70;23.53
75786;DHT22;64402;44.708;37.644;2023-09-30T12:24:15;40.26;23.96
75786;DHT22;64402;44.708;37.644;2023-09-30T12:26:43;40.17;24.33
75786;DHT22;64402;44.708;37.644;2023-09-30T12:29:20;39.71;25.40
75786;DHT22;64402;44.708;37.644;2023-09-30T12:31:50;39.22;25.19
75786;DHT22;64402;44.708;37.644;2023-09-30T12:34:17;38.96;26.15
75786;DHT22;64402;44.708;37.644;2023-09-30T12:36:43;38.95;26.61
75786;DHT22;64402;44.708;37.644;2023-09-30T12:39:10;38.89;27.10
75786;DHT22;64402;44.708;37.644;2023-09-30T12:41:41;38.76;27.84
75786;DHT22;64402;44.708;37.644;2023-09-30T12:44:08;37.96;29.40
75786;DHT22;64402;44.708;37.644;2023-09-30T12:46:34;39.08;27.65
75786;DHT22;64402;44.708;37.644;2023-09-30T12:49:07;38.65;28.61
75786;DHT22;64402;44.708;37.644;2023-09-30T12:51:33;38.46;29.07
75786;DHT22;64402;44.708;37.644;2023-09-30T12:54:00;37.75;30.14
75786;DHT22;64402;44.708;37.644;2023-09-30T12:56:27;38.14;30.04
75786;DHT22;64402;44.708;37.644;2023-09-30T12:58:55;37.97;30.28
75786;DHT22;64402;44.708;37.644;2023-09-30T13:01:22;38.06;30.30
75786;DHT22;64402;44.708;37.644;2023-09-30T13:03:48;37.86;30.85
75786;DHT22;64402;44.708;37.644;2023-09-30T13:06:15;38.03;30.09
75786;DHT22;64402;44.708;37.644;2023-09-30T13:08:44;37.77;30.41
75786;DHT22;64402;44.708;37.644;2023-09-30T13:11:10;38.05;30.42
75786;DHT22;64402;44.708;37.644;2023-09-30T13:13:39;37.05;32.18
75786;DHT22;64402;44.708;37.644;2023-09-30T13:16:05;36.49;33.04
75786;DHT22;64402;44.708;37.644;2023-09-30T13:18:33;37.07;31.94
75786;DHT22;64402;44.708;37.644;2023-09-30T13:20:59;36.59;32.88
75786;DHT22;64402;44.708;37.644;2023-09-30T13:23:25;37.14;32.32
75786;DHT22;64402;44.708;37.644;2023-09-30T13:25:53;37.34;31.53
75786;DHT22;64402;44.708;37.644;2023-09-30T13:28:19;36.93;32.38
75786;DHT22;64402;44.708;37.644;2023-09-30T13:30:45;36.83;32.11
75786;DHT22;64402;44.708;37.644;2023-09-30T13:33:12;36.85;32.19
75786;DHT22;64402;44.708;37.644;2023-09-30T13:35:38;36.66;32.87
75786;DHT22;64402;44.708;37.644;2023-09-30T13:38:04;36.55;33.35
75786;DHT22;64402;44.708;37.644;2023-09-30T13:40:30;36.53;33.61
75786;DHT22;64402;44.708;37.644;2023-09-30T13:42:56;36.29;34.14
75786;DHT22;64402;44.708;37.644;2023-09-30T13:45:24;36.63;33.52
75786;DHT22;64402;44.708;37.644;2023-09-30T13:47:51;36.30;33.99
75786;DHT22;64402;44.708;37.644;2023-09-30T13:50:17;35.85;35.14
75786;DHT22;64402;44.708;37.644;2023-09-30T13:52:43;35.55;35.88
75786;DHT22;64402;44.708;37.644;2023-09-30T13:55:09;35.31;36.30
75786;DHT22;64402;44.708;37.644;2023-09-30T13:57:35;34.83;37.30
75786;DHT22;64402;44.708;37.644;2023-09-30T14:00:04;35.05;36.72
75786;DHT22;64402;44.708;37.644;2023-09-30T14:02:32;35.11;36.47
75786;DHT22;64402;44.708;37.644;2023-09-30T14:04:58;35.21;36.50
75786;DHT22;64402;44.708;37.644;2023-09-30T14:07:24;35.40;35.86
75786;DHT22;64402;44.708;37.644;2023-09-30T14:09:51;34.81;37.31
75786;DHT22;64402;44.708;37.644;2023-09-30T14:12:18;34.52;36.98
75786;DHT22;64402;44.708;37.644;2023-09-30T14:14:44;34.30;36.39
75786;DHT22;64402;44.708;37.644;2023-09-30T14:17:10;33.62;38.20
75786;DHT22;64402;44.708;37.644;2023-09-30T14:19:38;33.00;39.14
75786;DHT22;64402;44.708;37.644;2023-09-30T14:22:05;32.72;40.94
75786;DHT22;64402;44.708;37.644;2023-09-30T14:24:32;32.87;39.65
75786;DHT22;64402;44.708;37.644;2023-09-30T14:27:02;32.89;39.52
75786;DHT22;64402;44.708;37.644;2023-09-30T14:29:30;32.88;39.95
75786;DHT22;64402;44.708;37.644;2023-09-30T14:31:56;33.09;39.39
75786;DHT22;64402;44.708;37.644;2023-09-30T14:34:24;32.98;39.77
75786;DHT22;64402;44.708;37.644;2023-09-30T14:36:51;32.87;39.99
75786;DHT22;64402;44.708;37.644;2023-09-30T14:39:17;32.72;40.37
75786;DHT22;64402;44.708;37.644;2023-09-30T14:41:44;32.24;41.31
75786;DHT22;64402;44.708;37.644;2023-09-30T14:44:11;32.12;41.62
75786;DHT22;64402;44.708;37.644;2023-09-30T14:46:41;31.90;42.18
75786;DHT22;64402;44.708;37.644;2023-09-30T14:49:07;31.66;42.45
75786;DHT22;64402;44.708;37.644;2023-09-30T14:51:34;31.18;43.77
75786;DHT22;64402;44.708;37.644;2023-09-30T14:54:01;30.59;44.92
75786;DHT22;64402;44.708;37.644;2023-09-30T14:56:28;30.18;46.02
75786;DHT22;64402;44.708;37.644;2023-09-30T14:58:54;29.83;47.00
75786;DHT22;64402;44.708;37.644;2023-09-30T15:01:21;29.52;47.46
75786;DHT22;64402;44.708;37.644;2023-09-30T15:03:48;29.19;48.47
75786;DHT22;64402;44.708;37.644;2023-09-30T15:06:14;28.85;49.42
75786;DHT22;64402;44.708;37.644;2023-09-30T15:08:40;28.54;50.37
75786;DHT22;64402;44.708;37.644;2023-09-30T15:11:12;28.28;51.01
75786;DHT22;64402;44.708;37.644;2023-09-30T15:13:41;27.97;51.69
75786;DHT22;64402;44.708;37.644;2023-09-30T15:16:16;27.70;52.50
75786;DHT22;64402;44.708;37.644;2023-09-30T15:18:43;27.50;52.58
75786;DHT22;64402;44.708;37.644;2023-09-30T15:21:09;27.25;52.85
75786;DHT22;64402;44.708;37.644;2023-09-30T15:23:35;27.04;52.88
75786;DHT22;64402;44.708;37.644;2023-09-30T15:26:01;26.90;51.41
75786;DHT22;64402;44.708;37.644;2023-09-30T15:28:27;26.79;51.79
75786;DHT22;64402;44.708;37.644;2023-09-30T15:30:53;26.65;50.36
75786;DHT22;64402;44.708;37.644;2023-09-30T15:33:20;26.51;49.68
75786;DHT22;64402;44.708;37.644;2023-09-30T15:35:46;26.41;49.45